createdAt,value
2018-06-27T00:00:09.145Z,1018.78
2018-06-27T00:00:49.828Z,1018.76
2018-06-27T00:01:30.385Z,1018.71
2018-06-27T00:02:10.936Z,1018.71
2018-06-27T00:02:51.497Z,1018.7
2018-06-27T00:03:32.044Z,1018.66
2018-06-27T00:04:12.597Z,1018.63
2018-06-27T00:04:53.192Z,1018.64
2018-06-27T00:05:33.724Z,1018.63
2018-06-27T00:06:14.276Z,1018.63
2018-06-27T00:06:54.829Z,1018.6
2018-06-27T00:07:35.398Z,1018.59
2018-06-27T00:08:15.959Z,1018.61
2018-06-27T00:08:56.561Z,1018.62
2018-06-27T00:09:37.134Z,1018.64
2018-06-27T00:10:17.665Z,1018.63
2018-06-27T00:10:58.202Z,1018.63
2018-06-27T00:11:38.757Z,1018.63
2018-06-27T00:12:19.343Z,1018.62
2018-06-27T00:12:59.920Z,1018.63
2018-06-27T00:13:40.491Z,1018.63
2018-06-27T00:14:21.018Z,1018.6
2018-06-27T00:15:01.614Z,1018.56
2018-06-27T00:15:42.163Z,1018.56
2018-06-27T00:16:22.768Z,1018.56
2018-06-27T00:17:03.424Z,1018.56
2018-06-27T00:17:44.119Z,1018.51
2018-06-27T00:18:24.732Z,1018.55
2018-06-27T00:19:05.277Z,1018.5
2018-06-27T00:19:45.823Z,1018.54
2018-06-27T00:20:26.370Z,1018.49
2018-06-27T00:21:07.805Z,1018.55
2018-06-27T00:21:48.383Z,1018.56
2018-06-27T00:22:28.928Z,1018.53
2018-06-27T00:23:09.484Z,1018.55
2018-06-27T00:23:50.011Z,1018.56
2018-06-27T00:24:30.590Z,1018.6
2018-06-27T00:25:11.106Z,1018.57
2018-06-27T00:25:51.649Z,1018.53
2018-06-27T00:26:32.173Z,1018.52
2018-06-27T00:27:12.716Z,1018.49
2018-06-27T00:27:53.269Z,1018.5
2018-06-27T00:28:33.791Z,1018.47
2018-06-27T00:29:14.328Z,1018.49
2018-06-27T00:29:54.902Z,1018.47
2018-06-27T00:30:35.449Z,1018.51
2018-06-27T00:31:16.013Z,1018.47
2018-06-27T00:31:56.595Z,1018.45
2018-06-27T00:32:37.225Z,1018.43
2018-06-27T00:33:17.857Z,1018.42
2018-06-27T00:33:58.522Z,1018.44
2018-06-27T00:34:38.999Z,1018.43
2018-06-27T00:35:19.558Z,1018.43
2018-06-27T00:36:00.109Z,1018.44
2018-06-27T00:36:40.684Z,1018.43
2018-06-27T00:37:21.234Z,1018.45
2018-06-27T00:38:01.794Z,1018.43
2018-06-27T00:38:42.331Z,1018.48
2018-06-27T00:39:22.904Z,1018.54
2018-06-27T00:40:03.458Z,1018.43
2018-06-27T00:40:44.046Z,1018.5
2018-06-27T00:41:24.612Z,1018.52
2018-06-27T00:42:05.188Z,1018.49
2018-06-27T00:42:45.740Z,1018.53
2018-06-27T00:43:26.435Z,1018.58
2018-06-27T00:44:06.900Z,1018.54
2018-06-27T00:44:47.513Z,1018.55
2018-06-27T00:45:28.031Z,1018.58
2018-06-27T00:46:08.610Z,1018.58
2018-06-27T00:46:52.194Z,1018.57
2018-06-27T00:47:32.766Z,1018.58
2018-06-27T00:48:13.343Z,1018.58
2018-06-27T00:48:53.908Z,1018.6
2018-06-27T00:49:34.566Z,1018.62
2018-06-27T00:50:15.148Z,1018.66
2018-06-27T00:50:55.701Z,1018.68
2018-06-27T00:51:36.249Z,1018.7
2018-06-27T00:52:16.805Z,1018.68
2018-06-27T00:52:57.374Z,1018.65
2018-06-27T00:53:38.023Z,1018.66
2018-06-27T00:54:18.628Z,1018.64
2018-06-27T00:54:59.286Z,1018.67
2018-06-27T00:55:39.872Z,1018.64
2018-06-27T00:56:20.444Z,1018.61
2018-06-27T00:57:01.023Z,1018.57
2018-06-27T00:57:41.594Z,1018.57
2018-06-27T00:58:22.370Z,1018.53
2018-06-27T00:59:02.985Z,1018.56
2018-06-27T00:59:43.556Z,1018.59
2018-06-27T01:00:24.093Z,1018.56
2018-06-27T01:01:04.673Z,1018.57
2018-06-27T01:01:45.218Z,1018.59
2018-06-27T01:02:25.769Z,1018.63
2018-06-27T01:03:06.415Z,1018.57
2018-06-27T01:03:46.988Z,1018.62
2018-06-27T01:04:27.511Z,1018.6
2018-06-27T01:05:08.061Z,1018.59
2018-06-27T01:05:48.609Z,1018.65
2018-06-27T01:06:29.236Z,1018.65
2018-06-27T01:07:09.794Z,1018.6
2018-06-27T01:07:50.358Z,1018.6
2018-06-27T01:08:30.910Z,1018.61
2018-06-27T01:09:11.466Z,1018.59
2018-06-27T01:09:52.020Z,1018.58
2018-06-27T01:10:32.628Z,1018.57
2018-06-27T01:11:13.138Z,1018.55
2018-06-27T01:11:53.792Z,1018.63
2018-06-27T01:12:34.452Z,1018.56
2018-06-27T01:13:15.219Z,1018.53
2018-06-27T01:13:55.856Z,1018.59
2018-06-27T01:14:36.488Z,1018.57
2018-06-27T01:15:17.037Z,1018.6
2018-06-27T01:15:57.638Z,1018.59
2018-06-27T01:16:38.161Z,1018.55
2018-06-27T01:17:18.750Z,1018.62
2018-06-27T01:17:59.320Z,1018.61
2018-06-27T01:18:39.877Z,1018.6
2018-06-27T01:19:20.497Z,1018.56
2018-06-27T01:20:01.094Z,1018.58
2018-06-27T01:20:41.852Z,1018.6
2018-06-27T01:21:22.415Z,1018.63
2018-06-27T01:22:02.968Z,1018.63
2018-06-27T01:22:43.521Z,1018.63
2018-06-27T01:23:24.117Z,1018.62
2018-06-27T01:24:04.663Z,1018.59
2018-06-27T01:24:45.257Z,1018.59
2018-06-27T01:25:26.656Z,1018.57
2018-06-27T01:26:06.602Z,1018.61
2018-06-27T01:26:47.207Z,1018.58
2018-06-27T01:27:27.761Z,1018.56
2018-06-27T01:28:08.305Z,1018.55
2018-06-27T01:28:49.073Z,1018.56
2018-06-27T01:29:29.859Z,1018.53
2018-06-27T01:30:10.434Z,1018.52
2018-06-27T01:30:50.992Z,1018.61
2018-06-27T01:31:31.546Z,1018.61
2018-06-27T01:32:12.184Z,1018.57
2018-06-27T01:32:52.796Z,1018.64
2018-06-27T01:33:33.353Z,1018.64
2018-06-27T01:34:13.910Z,1018.66
2018-06-27T01:34:54.457Z,1018.7
2018-06-27T01:35:35.058Z,1018.7
2018-06-27T01:36:15.606Z,1018.71
2018-06-27T01:36:56.264Z,1018.7
2018-06-27T01:37:36.835Z,1018.7
2018-06-27T01:38:17.481Z,1018.69
2018-06-27T01:38:58.023Z,1018.7
2018-06-27T01:39:38.575Z,1018.7
2018-06-27T01:40:19.144Z,1018.66
2018-06-27T01:40:59.705Z,1018.67
2018-06-27T01:41:40.256Z,1018.7
2018-06-27T01:42:20.797Z,1018.73
2018-06-27T01:43:01.338Z,1018.73
2018-06-27T01:43:41.890Z,1018.73
2018-06-27T01:44:22.445Z,1018.77
2018-06-27T01:45:02.975Z,1018.74
2018-06-27T01:45:43.580Z,1018.73
2018-06-27T01:46:24.145Z,1018.71
2018-06-27T01:47:04.667Z,1018.74
2018-06-27T01:47:45.219Z,1018.73
2018-06-27T01:48:25.790Z,1018.74
2018-06-27T01:49:06.328Z,1018.69
2018-06-27T01:49:46.883Z,1018.75
2018-06-27T01:50:27.411Z,1018.69
2018-06-27T01:51:07.967Z,1018.68
2018-06-27T01:51:48.528Z,1018.69
2018-06-27T01:52:29.084Z,1018.65
2018-06-27T01:53:09.631Z,1018.66
2018-06-27T01:53:50.202Z,1018.64
2018-06-27T01:54:30.777Z,1018.68
2018-06-27T01:55:11.344Z,1018.67
2018-06-27T01:55:51.905Z,1018.67
2018-06-27T01:56:32.468Z,1018.65
2018-06-27T01:57:13.017Z,1018.66
2018-06-27T01:57:53.572Z,1018.66
2018-06-27T01:58:34.133Z,1018.68
2018-06-27T01:59:14.689Z,1018.69
2018-06-27T01:59:55.329Z,1018.68
2018-06-27T02:00:35.893Z,1018.64
2018-06-27T02:01:16.485Z,1018.66
2018-06-27T02:01:57.148Z,1018.63
2018-06-27T02:02:37.791Z,1018.64
2018-06-27T02:03:18.459Z,1018.6
2018-06-27T02:03:59.016Z,1018.62
2018-06-27T02:04:39.647Z,1018.62
2018-06-27T02:05:20.218Z,1018.67
2018-06-27T02:06:00.817Z,1018.67
2018-06-27T02:06:41.378Z,1018.69
2018-06-27T02:07:21.992Z,1018.67
2018-06-27T02:08:02.552Z,1018.7
2018-06-27T02:08:43.167Z,1018.68
2018-06-27T02:09:23.841Z,1018.71
2018-06-27T02:10:04.511Z,1018.7
2018-06-27T02:10:45.113Z,1018.69
2018-06-27T02:11:25.784Z,1018.68
2018-06-27T02:12:06.425Z,1018.69
2018-06-27T02:12:47.127Z,1018.7
2018-06-27T02:13:27.694Z,1018.68
2018-06-27T02:14:08.348Z,1018.64
2018-06-27T02:14:48.939Z,1018.67
2018-06-27T02:15:29.528Z,1018.67
2018-06-27T02:16:10.197Z,1018.66
2018-06-27T02:16:50.807Z,1018.68
2018-06-27T02:17:31.455Z,1018.71
2018-06-27T02:18:12.058Z,1018.71
2018-06-27T02:18:52.644Z,1018.73
2018-06-27T02:19:33.401Z,1018.67
2018-06-27T02:20:14.002Z,1018.7
2018-06-27T02:20:54.616Z,1018.71
2018-06-27T02:21:35.319Z,1018.74
2018-06-27T02:22:16.062Z,1018.7
2018-06-27T02:22:56.782Z,1018.71
2018-06-27T02:23:37.442Z,1018.68
2018-06-27T02:24:18.275Z,1018.75
2018-06-27T02:24:58.856Z,1018.74
2018-06-27T02:25:39.487Z,1018.74
2018-06-27T02:26:20.200Z,1018.74
2018-06-27T02:27:00.789Z,1018.8
2018-06-27T02:27:41.473Z,1018.81
2018-06-27T02:28:22.090Z,1018.77
2018-06-27T02:29:02.870Z,1018.8
2018-06-27T02:29:43.536Z,1018.77
2018-06-27T02:30:24.127Z,1018.81
2018-06-27T02:31:04.738Z,1018.83
2018-06-27T02:31:45.368Z,1018.84
2018-06-27T02:32:25.982Z,1018.81
2018-06-27T02:33:06.705Z,1018.83
2018-06-27T02:33:47.369Z,1018.85
2018-06-27T02:34:27.869Z,1018.83
2018-06-27T02:35:08.526Z,1018.86
2018-06-27T02:35:49.092Z,1018.86
2018-06-27T02:36:29.860Z,1018.91
2018-06-27T02:37:10.480Z,1018.89
2018-06-27T02:37:51.095Z,1018.91
2018-06-27T02:38:31.690Z,1018.91
2018-06-27T02:39:12.448Z,1018.88
2018-06-27T02:39:52.984Z,1018.89
2018-06-27T02:40:33.635Z,1018.87
2018-06-27T02:41:14.242Z,1018.85
2018-06-27T02:41:54.896Z,1018.87
2018-06-27T02:42:35.501Z,1018.88
2018-06-27T02:43:16.194Z,1018.87
2018-06-27T02:43:56.885Z,1018.85
2018-06-27T02:44:37.559Z,1018.85
2018-06-27T02:45:18.157Z,1018.85
2018-06-27T02:45:58.800Z,1018.84
2018-06-27T02:46:39.399Z,1018.83
2018-06-27T02:47:20.157Z,1018.83
2018-06-27T02:48:00.740Z,1018.86
2018-06-27T02:48:41.306Z,1018.81
2018-06-27T02:49:22.074Z,1018.84
2018-06-27T02:50:02.625Z,1018.86
2018-06-27T02:50:43.239Z,1018.84
2018-06-27T02:51:23.998Z,1018.87
2018-06-27T02:52:04.555Z,1018.87
2018-06-27T02:52:45.293Z,1018.86
2018-06-27T02:53:25.923Z,1018.91
2018-06-27T02:54:06.613Z,1018.89
2018-06-27T02:54:47.262Z,1018.88
2018-06-27T02:55:27.856Z,1018.87
2018-06-27T02:56:08.515Z,1018.86
2018-06-27T02:56:49.123Z,1018.86
2018-06-27T02:57:29.748Z,1018.9
2018-06-27T02:58:10.340Z,1018.86
2018-06-27T02:58:50.910Z,1018.88
2018-06-27T02:59:31.503Z,1018.85
2018-06-27T03:00:12.060Z,1018.87
2018-06-27T03:00:52.681Z,1018.89
2018-06-27T03:01:33.438Z,1018.92
2018-06-27T03:02:14.109Z,1018.91
2018-06-27T03:02:54.778Z,1018.93
2018-06-27T03:03:35.436Z,1018.9
2018-06-27T03:04:16.033Z,1018.91
2018-06-27T03:04:56.869Z,1018.95
2018-06-27T03:05:37.437Z,1018.96
2018-06-27T03:06:18.012Z,1018.97
2018-06-27T03:06:58.601Z,1018.97
2018-06-27T03:07:39.186Z,1019.04
2018-06-27T03:08:19.767Z,1019.01
2018-06-27T03:09:00.428Z,1019.01
2018-06-27T03:09:41.055Z,1019.05
2018-06-27T03:10:21.634Z,1019.04
2018-06-27T03:11:02.165Z,1019.05
2018-06-27T03:11:42.820Z,1019.05
2018-06-27T03:12:23.412Z,1019.06
2018-06-27T03:13:03.979Z,1019.07
2018-06-27T03:13:44.603Z,1019.04
2018-06-27T03:14:25.159Z,1019.08
2018-06-27T03:15:05.769Z,1019.09
2018-06-27T03:15:46.332Z,1019.09
2018-06-27T03:16:26.883Z,1019.09
2018-06-27T03:17:07.441Z,1019.09
2018-06-27T03:17:48.111Z,1019.11
2018-06-27T03:18:28.685Z,1019.1
2018-06-27T03:19:09.248Z,1019.08
2018-06-27T03:19:49.810Z,1019.11
2018-06-27T03:20:30.404Z,1019.08
2018-06-27T03:21:11.019Z,1019.11
2018-06-27T03:21:51.556Z,1019.15
2018-06-27T03:22:32.159Z,1019.16
2018-06-27T03:23:12.758Z,1019.18
2018-06-27T03:23:53.276Z,1019.17
2018-06-27T03:24:33.837Z,1019.18
2018-06-27T03:25:14.404Z,1019.15
2018-06-27T03:25:54.958Z,1019.2
2018-06-27T03:26:35.590Z,1019.17
2018-06-27T03:27:16.189Z,1019.17
2018-06-27T03:27:56.760Z,1019.14
2018-06-27T03:28:37.324Z,1019.19
2018-06-27T03:29:17.891Z,1019.17
2018-06-27T03:29:58.423Z,1019.19
2018-06-27T03:30:39.072Z,1019.18
2018-06-27T03:31:19.583Z,1019.19
2018-06-27T03:32:00.320Z,1019.18
2018-06-27T03:32:40.959Z,1019.22
2018-06-27T03:33:21.674Z,1019.19
2018-06-27T03:34:02.444Z,1019.18
2018-06-27T03:34:43.102Z,1019.19
2018-06-27T03:35:23.818Z,1019.22
2018-06-27T03:36:04.676Z,1019.16
2018-06-27T03:36:45.381Z,1019.16
2018-06-27T03:37:25.963Z,1019.18
2018-06-27T03:38:06.730Z,1019.2
2018-06-27T03:38:47.272Z,1019.18
2018-06-27T03:39:28.016Z,1019.19
2018-06-27T03:40:08.799Z,1019.2
2018-06-27T03:40:49.470Z,1019.23
2018-06-27T03:41:30.202Z,1019.18
2018-06-27T03:42:11.044Z,1019.25
2018-06-27T03:42:51.730Z,1019.23
2018-06-27T03:43:32.378Z,1019.29
2018-06-27T03:44:12.876Z,1019.31
2018-06-27T03:44:53.479Z,1019.32
2018-06-27T03:45:34.289Z,1019.32
2018-06-27T03:46:14.845Z,1019.34
2018-06-27T03:46:55.470Z,1019.31
2018-06-27T03:47:36.160Z,1019.35
2018-06-27T03:48:16.760Z,1019.34
2018-06-27T03:48:57.319Z,1019.36
2018-06-27T03:49:37.923Z,1019.31
2018-06-27T03:50:18.498Z,1019.29
2018-06-27T03:50:59.079Z,1019.37
2018-06-27T03:51:39.614Z,1019.34
2018-06-27T03:52:20.271Z,1019.36
2018-06-27T03:53:00.883Z,1019.32
2018-06-27T03:53:41.439Z,1019.37
2018-06-27T03:54:22.048Z,1019.36
2018-06-27T03:55:02.718Z,1019.32
2018-06-27T03:55:43.337Z,1019.32
2018-06-27T03:56:23.987Z,1019.38
2018-06-27T03:57:04.652Z,1019.39
2018-06-27T03:57:45.129Z,1019.37
2018-06-27T03:58:25.688Z,1019.34
2018-06-27T03:59:06.355Z,1019.38
2018-06-27T03:59:46.883Z,1019.41
2018-06-27T04:00:27.455Z,1019.37
2018-06-27T04:01:08.021Z,1019.38
2018-06-27T04:01:48.696Z,1019.41
2018-06-27T04:02:29.328Z,1019.4
2018-06-27T04:03:09.918Z,1019.4
2018-06-27T04:03:50.494Z,1019.47
2018-06-27T04:04:31.113Z,1019.48
2018-06-27T04:05:11.665Z,1019.4
2018-06-27T04:05:52.228Z,1019.43
2018-06-27T04:06:32.786Z,1019.42
2018-06-27T04:07:13.416Z,1019.38
2018-06-27T04:07:54.045Z,1019.43
2018-06-27T04:08:34.607Z,1019.43
2018-06-27T04:09:15.174Z,1019.42
2018-06-27T04:09:55.719Z,1019.42
2018-06-27T04:10:36.299Z,1019.45
2018-06-27T04:11:16.905Z,1019.48
2018-06-27T04:11:57.462Z,1019.48
2018-06-27T04:12:38.120Z,1019.46
2018-06-27T04:13:18.757Z,1019.5
2018-06-27T04:13:59.239Z,1019.52
2018-06-27T04:14:40.048Z,1019.49
2018-06-27T04:15:20.487Z,1019.48
2018-06-27T04:16:01.103Z,1019.51
2018-06-27T04:16:41.731Z,1019.49
2018-06-27T04:17:22.315Z,1019.56
2018-06-27T04:18:03.982Z,1019.49
2018-06-27T04:18:44.588Z,1019.49
2018-06-27T04:19:25.202Z,1019.52
2018-06-27T04:20:05.799Z,1019.5
2018-06-27T04:20:46.403Z,1019.5
2018-06-27T04:21:27.063Z,1019.55
2018-06-27T04:22:07.639Z,1019.51
2018-06-27T04:22:48.408Z,1019.51
2018-06-27T04:23:29.047Z,1019.51
2018-06-27T04:24:09.601Z,1019.53
2018-06-27T04:24:50.258Z,1019.51
2018-06-27T04:25:31.714Z,1019.49
2018-06-27T04:26:12.500Z,1019.53
2018-06-27T04:26:53.062Z,1019.54
2018-06-27T04:27:33.694Z,1019.5
2018-06-27T04:28:14.254Z,1019.52
2018-06-27T04:28:54.913Z,1019.53
2018-06-27T04:29:36.376Z,1019.53
2018-06-27T04:30:17.416Z,1019.6
2018-06-27T04:30:59.493Z,1019.54
2018-06-27T04:31:41.420Z,1019.53
2018-06-27T04:32:24.052Z,1019.54
2018-06-27T04:33:05.723Z,1019.57
2018-06-27T04:33:46.444Z,1019.55
2018-06-27T04:34:28.237Z,1019.56
2018-06-27T04:35:08.976Z,1019.58
2018-06-27T04:35:50.008Z,1019.57
2018-06-27T04:36:31.216Z,1019.54
2018-06-27T04:37:12.215Z,1019.59
2018-06-27T04:37:53.594Z,1019.6
2018-06-27T04:38:35.073Z,1019.59
2018-06-27T04:39:16.283Z,1019.6
2018-06-27T04:39:57.772Z,1019.62
2018-06-27T04:40:38.860Z,1019.58
2018-06-27T04:41:20.321Z,1019.62
2018-06-27T04:42:01.561Z,1019.65
2018-06-27T04:42:43.461Z,1019.6
2018-06-27T04:43:25.414Z,1019.64
2018-06-27T04:44:06.569Z,1019.65
2018-06-27T04:44:49.745Z,1019.63
2018-06-27T04:45:31.520Z,1019.65
2018-06-27T04:46:13.783Z,1019.68
2018-06-27T04:46:57.750Z,1019.65
2018-06-27T04:47:39.011Z,1019.66
2018-06-27T04:48:23.472Z,1019.64
2018-06-27T04:49:05.702Z,1019.65
2018-06-27T04:49:48.710Z,1019.67
2018-06-27T04:50:30.111Z,1019.7
2018-06-27T04:51:11.520Z,1019.7
2018-06-27T04:51:52.917Z,1019.7
2018-06-27T04:52:35.769Z,1019.72
2018-06-27T04:53:17.786Z,1019.73
2018-06-27T04:54:06.338Z,1019.74
2018-06-27T04:54:50.024Z,1019.73
2018-06-27T04:55:32.282Z,1019.7
2018-06-27T04:56:14.737Z,1019.76
2018-06-27T04:56:55.994Z,1019.72
2018-06-27T04:57:37.328Z,1019.7
2018-06-27T04:58:19.593Z,1019.76
2018-06-27T04:59:01.797Z,1019.76
2018-06-27T04:59:43.082Z,1019.81
2018-06-27T05:00:24.995Z,1019.8
2018-06-27T05:01:08.267Z,1019.82
2018-06-27T05:01:49.569Z,1019.77
2018-06-27T05:02:30.857Z,1019.8
2018-06-27T05:03:13.882Z,1019.8
2018-06-27T05:03:57.738Z,1019.78
2018-06-27T05:04:39.089Z,1019.79
2018-06-27T05:05:20.414Z,1019.81
2018-06-27T05:06:02.170Z,1019.79
2018-06-27T05:06:45.207Z,1019.82
2018-06-27T05:07:31.771Z,1019.87
2018-06-27T05:08:15.953Z,1019.86
2018-06-27T05:08:57.343Z,1019.95
2018-06-27T05:09:40.498Z,1019.88
2018-06-27T05:10:21.820Z,1019.95
2018-06-27T05:11:03.193Z,1019.93
2018-06-27T05:11:44.696Z,1019.9
2018-06-27T05:12:27.241Z,1019.88
2018-06-27T05:13:09.191Z,1019.88
2018-06-27T05:13:50.534Z,1019.84
2018-06-27T05:14:33.164Z,1019.86
2018-06-27T05:15:17.418Z,1019.91
2018-06-27T05:15:59.617Z,1019.9
2018-06-27T05:16:43.456Z,1019.73
2018-06-27T05:17:25.707Z,1019.72
2018-06-27T05:18:08.938Z,1019.63
2018-06-27T05:18:51.934Z,1019.71
2018-06-27T05:19:33.299Z,1019.72
2018-06-27T05:20:14.622Z,1019.79
2018-06-27T05:20:55.972Z,1019.76
2018-06-27T05:21:40.074Z,1019.87
2018-06-27T05:22:22.853Z,1019.79
2018-06-27T05:23:05.729Z,1019.84
2018-06-27T05:23:47.049Z,1019.9
2018-06-27T05:24:29.249Z,1019.91
2018-06-27T05:25:11.255Z,1019.94
2018-06-27T05:25:56.508Z,1019.93
2018-06-27T05:26:41.442Z,1019.96
2018-06-27T05:27:22.910Z,1020
2018-06-27T05:28:05.105Z,1020.03
2018-06-27T05:28:49.953Z,1020.07
2018-06-27T05:29:32.882Z,1020.1
2018-06-27T05:30:14.773Z,1020.12
2018-06-27T05:30:57.003Z,1020.13
2018-06-27T05:31:41.965Z,1020.18
2018-06-27T05:32:25.272Z,1020.2
2018-06-27T05:33:09.239Z,1020.14
2018-06-27T05:33:51.432Z,1020.23
2018-06-27T05:34:32.819Z,1020.29
2018-06-27T05:35:14.126Z,1020.35
2018-06-27T05:35:57.454Z,1020.38
2018-06-27T05:36:38.745Z,1020.41
2018-06-27T05:37:20.134Z,1020.46
2018-06-27T05:38:03.973Z,1020.57
2018-06-27T05:38:46.005Z,1020.54
2018-06-27T05:39:28.264Z,1020.61
2018-06-27T05:40:10.443Z,1020.63
2018-06-27T05:40:51.842Z,1020.67
2018-06-27T05:41:33.752Z,1020.72
2018-06-27T05:42:15.098Z,1020.85
2018-06-27T05:42:58.284Z,1020.91
2018-06-27T05:43:40.517Z,1021
2018-06-27T05:44:21.972Z,1021.05
2018-06-27T05:45:03.322Z,1021.22
2018-06-27T05:45:44.763Z,1021.32
2018-06-27T05:46:28.892Z,1021.35
2018-06-27T05:47:11.056Z,1021.43
2018-06-27T05:47:52.407Z,1021.47
2018-06-27T05:48:35.643Z,1021.54
2018-06-27T05:49:16.960Z,1021.63
2018-06-27T05:49:59.961Z,1021.77
2018-06-27T05:50:43.914Z,1021.82
2018-06-27T05:51:25.774Z,1021.91
2018-06-27T05:52:14.924Z,1022
2018-06-27T05:52:56.338Z,1022.03
2018-06-27T05:53:38.255Z,1022.15
2018-06-27T05:54:19.623Z,1022.15
2018-06-27T05:55:02.942Z,1022.22
2018-06-27T05:55:44.956Z,1022.27
2018-06-27T05:56:27.323Z,1022.37
2018-06-27T05:57:09.308Z,1022.46
2018-06-27T05:57:52.980Z,1022.56
2018-06-27T05:58:36.764Z,1022.52
2018-06-27T05:59:19.029Z,1022.43
2018-06-27T06:00:03.006Z,1022.18
2018-06-27T06:00:44.468Z,1022.14
2018-06-27T06:01:25.901Z,1022.02
2018-06-27T06:02:07.875Z,1021.98
2018-06-27T06:02:49.194Z,1021.85
2018-06-27T06:03:32.505Z,1021.8
2018-06-27T06:04:14.964Z,1021.74
2018-06-27T06:04:57.275Z,1021.76
2018-06-27T06:05:40.752Z,1021.76
2018-06-27T06:06:22.126Z,1021.68
2018-06-27T06:07:04.238Z,1021.52
2018-06-27T06:07:45.654Z,1021.47
2018-06-27T06:08:27.505Z,1021.52
2018-06-27T06:09:09.468Z,1021.63
2018-06-27T06:09:50.788Z,1021.7
2018-06-27T06:10:32.981Z,1021.83
2018-06-27T06:11:15.120Z,1021.84
2018-06-27T06:11:56.477Z,1021.82
2018-06-27T06:12:38.841Z,1021.84
2018-06-27T06:13:21.271Z,1021.68
2018-06-27T06:14:04.976Z,1021.58
2018-06-27T06:14:47.963Z,1021.58
2018-06-27T06:15:31.017Z,1021.59
2018-06-27T06:16:13.776Z,1021.61
2018-06-27T06:16:55.119Z,1021.67
2018-06-27T06:17:41.041Z,1021.69
2018-06-27T06:18:22.945Z,1021.65
2018-06-27T06:19:05.846Z,1021.67
2018-06-27T06:19:47.225Z,1021.74
2018-06-27T06:20:30.233Z,1021.77
2018-06-27T06:21:17.292Z,1021.73
2018-06-27T06:22:05.279Z,1021.8
2018-06-27T06:22:47.289Z,1021.84
2018-06-27T06:23:30.971Z,1021.9
2018-06-27T06:24:12.377Z,1022.02
2018-06-27T06:24:54.300Z,1022.07
2018-06-27T06:25:36.344Z,1022.16
2018-06-27T06:26:19.265Z,1022.12
2018-06-27T06:27:00.529Z,1022.05
2018-06-27T06:27:41.859Z,1022.01
2018-06-27T06:28:24.071Z,1022.02
2018-06-27T06:29:05.969Z,1022.18
2018-06-27T06:29:49.725Z,1022.35
2018-06-27T06:30:31.068Z,1022.3
2018-06-27T06:31:13.000Z,1022.14
2018-06-27T06:31:54.995Z,1022.1
2018-06-27T06:32:39.952Z,1022.2
2018-06-27T06:33:22.842Z,1022.33
2018-06-27T06:34:06.856Z,1022.36
2018-06-27T06:34:50.847Z,1021.99
2018-06-27T06:35:32.103Z,1021.78
2018-06-27T06:36:15.289Z,1021.78
2018-06-27T06:36:59.116Z,1021.94
2018-06-27T06:37:41.269Z,1022.11
2018-06-27T06:38:24.460Z,1022.24
2018-06-27T06:39:06.603Z,1022.21
2018-06-27T06:39:47.920Z,1022.11
2018-06-27T06:40:29.450Z,1022.1
2018-06-27T06:41:12.516Z,1022.08
2018-06-27T06:41:53.907Z,1022.03
2018-06-27T06:42:35.997Z,1021.84
2018-06-27T06:43:17.981Z,1021.74
2018-06-27T06:43:59.997Z,1021.7
2018-06-27T06:44:41.306Z,1021.52
2018-06-27T06:45:22.515Z,1021.26
2018-06-27T06:46:03.928Z,1021.16
2018-06-27T06:46:46.990Z,1021.11
2018-06-27T06:47:28.377Z,1021.04
2018-06-27T06:48:15.195Z,1021.03
2018-06-27T06:48:57.003Z,1021.04
2018-06-27T06:49:39.063Z,1020.99
2018-06-27T06:50:22.833Z,1020.99
2018-06-27T06:51:05.191Z,1020.99
2018-06-27T06:51:48.089Z,1021
2018-06-27T06:52:30.507Z,1021.03
2018-06-27T06:53:14.329Z,1021.06
2018-06-27T06:53:57.145Z,1021.09
2018-06-27T06:54:42.020Z,1021.25
2018-06-27T06:55:26.297Z,1021.47
2018-06-27T06:56:10.502Z,1021.7
2018-06-27T06:56:53.557Z,1021.8
2018-06-27T06:57:38.528Z,1021.73
2018-06-27T06:58:20.011Z,1021.5
2018-06-27T06:59:03.016Z,1021.28
2018-06-27T06:59:45.370Z,1021.09
2018-06-27T07:00:26.689Z,1021.05
2018-06-27T07:01:08.804Z,1020.95
2018-06-27T07:01:50.154Z,1020.93
2018-06-27T07:02:31.509Z,1020.99
2018-06-27T07:03:16.274Z,1020.99
2018-06-27T07:03:57.700Z,1021.02
2018-06-27T07:04:39.056Z,1021.09
2018-06-27T07:05:21.059Z,1021.02
2018-06-27T07:06:04.023Z,1020.97
2018-06-27T07:06:47.042Z,1020.97
2018-06-27T07:07:28.396Z,1020.95
2018-06-27T07:08:10.552Z,1020.95
2018-06-27T07:08:51.902Z,1020.97
2018-06-27T07:09:34.119Z,1020.99
2018-06-27T07:10:16.344Z,1020.96
2018-06-27T07:10:58.572Z,1021.02
2018-06-27T07:11:39.853Z,1020.98
2018-06-27T07:12:22.160Z,1020.98
2018-06-27T07:13:04.153Z,1021.02
2018-06-27T07:13:45.553Z,1021.07
2018-06-27T07:14:27.769Z,1021.11
2018-06-27T07:15:09.048Z,1021.2
2018-06-27T07:15:50.457Z,1021.24
2018-06-27T07:16:32.385Z,1021.18
2018-06-27T07:17:14.524Z,1021.06
2018-06-27T07:17:55.967Z,1021.05
2018-06-27T07:18:37.977Z,1021.01
2018-06-27T07:19:19.305Z,1020.98
2018-06-27T07:20:00.659Z,1021.03
2018-06-27T07:20:43.038Z,1020.98
2018-06-27T07:21:25.157Z,1020.99
2018-06-27T07:22:06.570Z,1020.99
2018-06-27T07:22:47.939Z,1021.05
2018-06-27T07:23:29.188Z,1021.21
2018-06-27T07:24:11.341Z,1021.49
2018-06-27T07:24:54.206Z,1021.9
2018-06-27T07:25:37.997Z,1022.26
2018-06-27T07:26:21.426Z,1022.36
2018-06-27T07:27:04.514Z,1022.31
2018-06-27T07:27:47.627Z,1022.38
2018-06-27T07:28:29.723Z,1022.2
2018-06-27T07:29:11.831Z,1021.85
2018-06-27T07:29:53.167Z,1021.32
2018-06-27T07:30:35.122Z,1021.17
2018-06-27T07:31:20.113Z,1021.08
2018-06-27T07:32:02.163Z,1021.03
2018-06-27T07:32:45.341Z,1021
2018-06-27T07:33:28.070Z,1020.91
2018-06-27T07:34:14.849Z,1020.95
2018-06-27T07:34:57.005Z,1021
2018-06-27T07:35:39.317Z,1021
2018-06-27T07:36:21.264Z,1020.99
2018-06-27T07:37:02.683Z,1021
2018-06-27T07:37:43.991Z,1021.06
2018-06-27T07:38:26.139Z,1020.94
2018-06-27T07:39:07.756Z,1020.97
2018-06-27T07:39:49.029Z,1020.98
2018-06-27T07:40:32.110Z,1021.02
2018-06-27T07:41:13.537Z,1020.98
2018-06-27T07:41:56.313Z,1021.06
2018-06-27T07:42:37.757Z,1021.06
2018-06-27T07:43:19.079Z,1021.07
2018-06-27T07:44:00.477Z,1021.09
2018-06-27T07:44:43.501Z,1021.09
2018-06-27T07:45:24.830Z,1021.09
2018-06-27T07:46:06.206Z,1021.08
2018-06-27T07:46:47.536Z,1021.12
2018-06-27T07:47:31.329Z,1021.1
2018-06-27T07:48:13.641Z,1021.02
2018-06-27T07:48:55.549Z,1021.01
2018-06-27T07:49:36.878Z,1020.94
2018-06-27T07:50:18.285Z,1020.99
2018-06-27T07:50:59.667Z,1021.01
2018-06-27T07:51:41.866Z,1020.92
2018-06-27T07:52:24.080Z,1020.96
2018-06-27T07:53:05.323Z,1020.97
2018-06-27T07:53:46.642Z,1020.99
2018-06-27T07:54:29.855Z,1021.12
2018-06-27T07:55:11.205Z,1020.99
2018-06-27T07:55:53.307Z,1021.01
2018-06-27T07:56:36.539Z,1020.93
2018-06-27T07:57:18.617Z,1020.87
2018-06-27T07:58:01.876Z,1021.01
2018-06-27T07:58:43.858Z,1020.88
2018-06-27T07:59:27.112Z,1020.94
2018-06-27T08:00:08.468Z,1020.94
2018-06-27T08:00:51.336Z,1020.95
2018-06-27T08:01:33.550Z,1020.88
2018-06-27T08:02:14.901Z,1020.89
2018-06-27T08:02:56.243Z,1020.92
2018-06-27T08:03:37.674Z,1020.91
2018-06-27T08:04:21.059Z,1020.91
2018-06-27T08:05:03.128Z,1020.83
2018-06-27T08:05:45.077Z,1020.89
2018-06-27T08:06:27.351Z,1020.86
2018-06-27T08:07:11.372Z,1020.88
2018-06-27T08:07:52.706Z,1020.93
2018-06-27T08:08:34.012Z,1020.82
2018-06-27T08:09:16.835Z,1020.78
2018-06-27T08:09:59.838Z,1020.93
2018-06-27T08:10:43.516Z,1020.84
2018-06-27T08:11:25.790Z,1020.81
2018-06-27T08:12:07.228Z,1020.84
2018-06-27T08:12:49.165Z,1020.87
2018-06-27T08:13:30.544Z,1020.87
2018-06-27T08:14:11.899Z,1020.87
2018-06-27T08:14:54.855Z,1020.81
2018-06-27T08:15:37.097Z,1020.82
2018-06-27T08:16:19.379Z,1020.82
2018-06-27T08:17:00.657Z,1020.82
2018-06-27T08:17:41.991Z,1020.8
2018-06-27T08:18:23.310Z,1020.78
2018-06-27T08:19:05.598Z,1020.79
2018-06-27T08:19:46.968Z,1020.87
2018-06-27T08:20:28.238Z,1020.87
2018-06-27T08:21:10.366Z,1020.83
2018-06-27T08:21:51.713Z,1020.85
2018-06-27T08:22:32.935Z,1020.83